Abbotsford Airport
CYXX : now visible

Airfield :











YOU CAN JOIN US ON...

 
LOGIN :

Register | Disclaimer

   EN    FR    IT 

 









Legend :    VFR   Marginal VFR   IFR   Intensive IFR   Very Intensive IFR
Visi :
Ceiling :
>= 8 km
>= 3000ft
5 to 8 km
1000 to 3000 ft
1500m to 5 km
500 to 1000 ft
800 to 1500m
200 to 500 ft
< 800m
< 200 ft
Symbols :   Thunderstorms  Fog  Heavy snow  Heavy precipitations  Wind > 20 kt






- Airport Elevation : 195 ft
- IATA code : YXX


CYXX - Abbotsford

CURRENT METAR :
  • 311800Z 19009KT 30SM FEW071 FEW110 BKN140 BKN160 OVC250 21/15 A3008 RMK AC1AC1AC3AC2CS1 HZ SLP187 DENSITY ALT 700FT

EXPIRED METARs :
  • 311700Z 29004KT 240V310 30SM FEW078 BKN120 BKN150 OVC250 20/14 A3005 RMK AC2AC3AC1CS2 HZ SLP178 DENSITY ALT 700FT
  • 311622Z 00000KT 30SM FEW058 SCT078 BKN120 OVC150 20/14 A3004 RMK SC1AC2AC3AC2 HZ SLP175 DENSITY ALT 700FT
  • 311600Z 00000KT 30SM FEW028 SCT130 BKN150 BKN170 OVC230 20/13 A3003 RMK FU1AC3AC3AC1CI1 FU TR HZ SLP171 DENSITY ALT 700FT

TAF TAF CYXX
Valid from the 31 at 18:00 until the 01 at 18:00 UTC


311738Z 3118/0118 VRB03KT P6SM SCT080 BKN120
TEMPO 3118/0103 P6SM -SHRA VCTS BKN060 OVC100CB
BECMG 3122/3124 22008KT
FM010600 VRB03KT P6SM BKN120
TEMPO 0106/0118 P6SM -SHRA BKN100
BECMG 0115/0117 04010KT RMK NXT FCST BY 010000Z
CZVR FIR / North America



MET'MAP, your aeronautical weather chart ! - Copyright ORBIFLY December 2007 - Disclaimer

ORBIFLY MET'MAP TEAM :

Programming & Development : Alexandra Zaïnal
Concept & original design : Baudouin d'Aumeries
Assistance for programming : Marc-Olivier Méhu
Technical & hardware support : Manuel Goepfert

Contact : metmap@orbifly.com




SOURCES & CREDITS :

   NOAA       Earth
Advisory